createdAt,value
2022-09-10T00:03:35.377Z,44.37
2022-09-10T00:08:39.169Z,44.53
2022-09-10T00:13:42.365Z,44.74
2022-09-10T00:18:44.873Z,44.95
2022-09-10T00:23:47.982Z,45.18
2022-09-10T00:28:51.724Z,45.61
2022-09-10T00:33:54.899Z,45.47
2022-09-10T00:38:59.937Z,45.57
2022-09-10T00:44:04.157Z,45.55
2022-09-10T00:49:22.740Z,45.71
2022-09-10T00:54:27.446Z,46.01
2022-09-10T00:59:31.084Z,45.85
2022-09-10T01:04:33.482Z,46.13
2022-09-10T01:09:36.446Z,45.99
2022-09-10T01:15:07.159Z,45.95
2022-09-10T01:20:41.366Z,46.19
2022-09-10T01:26:05.404Z,46.19
2022-09-10T01:31:31.403Z,46.10
2022-09-10T01:36:39.173Z,46.29
2022-09-10T01:41:41.312Z,46.35
2022-09-10T01:47:17.812Z,46.23
2022-09-10T01:52:32.202Z,46.48
2022-09-10T01:57:50.377Z,46.66
2022-09-10T02:03:06.295Z,46.90
2022-09-10T02:08:14.742Z,47.18
2022-09-10T02:13:17.324Z,46.73
2022-09-10T02:18:33.559Z,46.49
2022-09-10T02:23:41.284Z,46.38
2022-09-10T02:28:43.744Z,46.21
2022-09-10T02:33:46.728Z,46.13
2022-09-10T02:38:48.613Z,45.96
2022-09-10T02:43:50.444Z,46.14
2022-09-10T02:48:55.277Z,46.17
2022-09-10T02:53:58.311Z,46.42
2022-09-10T02:59:00.563Z,46.91
2022-09-10T03:04:03.712Z,46.90
2022-09-10T03:09:06.788Z,46.84
2022-09-10T03:14:12.279Z,46.57
2022-09-10T03:19:15.230Z,46.60
2022-09-10T03:24:17.154Z,46.79
2022-09-10T03:29:23.021Z,46.83
2022-09-10T03:34:25.023Z,47.12
2022-09-10T03:39:27.306Z,47.67
2022-09-10T03:44:29.196Z,47.46
2022-09-10T03:49:31.030Z,47.27
2022-09-10T03:54:33.082Z,47.39
2022-09-10T03:59:35.516Z,47.64
2022-09-10T04:04:37.703Z,47.83
2022-09-10T04:09:39.732Z,47.79
2022-09-10T04:14:43.620Z,47.98
2022-09-10T04:19:48.813Z,48.24
2022-09-10T04:24:52.196Z,48.07
2022-09-10T04:29:54.217Z,47.89
2022-09-10T04:34:56.109Z,47.87
2022-09-10T04:39:59.174Z,47.71
2022-09-10T04:45:01.103Z,47.63
2022-09-10T04:50:03.890Z,47.77
2022-09-10T04:55:06.381Z,47.95
2022-09-10T05:00:09.017Z,48.36
2022-09-10T05:05:13.946Z,48.15
2022-09-10T05:10:15.993Z,48.04
2022-09-10T05:15:18.903Z,48.18
2022-09-10T05:20:22.803Z,48.37
2022-09-10T05:25:28.085Z,48.38
2022-09-10T05:30:33.106Z,48.32
2022-09-10T05:35:35.793Z,48.41
2022-09-10T05:40:38.300Z,48.69
2022-09-10T05:45:40.310Z,48.75
2022-09-10T05:50:45.610Z,48.58
2022-09-10T05:55:48.722Z,48.58
2022-09-10T06:00:52.153Z,48.50
2022-09-10T06:05:55.819Z,48.59
2022-09-10T06:11:06.038Z,48.41
2022-09-10T06:16:14.494Z,48.93
2022-09-10T06:21:19.747Z,49.05
2022-09-10T06:26:26.173Z,49.20
2022-09-10T06:31:31.539Z,49.26
2022-09-10T06:36:35.252Z,49.09
2022-09-10T06:41:37.604Z,49.12
2022-09-10T06:47:25.806Z,49.00
2022-09-10T06:52:11.631Z,48.36
2022-09-10T06:57:14.067Z,48.06
2022-09-10T07:02:16.901Z,47.50
2022-09-10T07:07:20.229Z,47.42
2022-09-10T07:12:22.448Z,47.58
2022-09-10T07:17:26.777Z,47.61
2022-09-10T07:22:32.680Z,47.66
2022-09-10T07:27:35.113Z,47.67
2022-09-10T07:32:37.304Z,48.04
2022-09-10T07:37:47.186Z,47.92
2022-09-10T07:42:49.562Z,47.86
2022-09-10T07:47:52.332Z,47.46
2022-09-10T07:52:54.797Z,47.26
2022-09-10T07:58:00.234Z,47.18
2022-09-10T08:03:04.918Z,47.28
2022-09-10T08:08:06.761Z,47.23
2022-09-10T08:13:10.166Z,47.07
2022-09-10T08:18:13.704Z,47.16
2022-09-10T08:23:16.661Z,47.08
2022-09-10T08:28:25.677Z,46.86
2022-09-10T08:33:30.095Z,46.38
2022-09-10T08:38:34.624Z,46.02
2022-09-10T08:44:03.472Z,45.71
2022-09-10T08:54:25.455Z,44.76
2022-09-10T08:59:35.101Z,43.85
2022-09-10T09:04:51.114Z,43.70
2022-09-10T09:09:53.876Z,43.48
2022-09-10T09:15:11.657Z,43.04
2022-09-10T09:20:26.150Z,42.82
2022-09-10T09:25:44.648Z,42.47
2022-09-10T09:30:49.820Z,41.85
2022-09-10T09:35:59.164Z,41.32
2022-09-10T09:41:15.773Z,41.77
2022-09-10T09:46:20.194Z,41.90
2022-09-10T09:51:25.419Z,42.08
2022-09-10T09:56:43.044Z,42.10
2022-09-10T10:01:45.098Z,42.21
2022-09-10T10:06:54.427Z,41.70
2022-09-10T10:12:04.484Z,41.15
2022-09-10T10:17:30.351Z,41.14
2022-09-10T10:22:32.639Z,41.14
2022-09-10T10:27:37.773Z,41.50
2022-09-10T10:32:44.863Z,41.48
2022-09-10T10:38:08.001Z,41.42
2022-09-10T10:43:22.991Z,42.23
2022-09-10T10:48:57.860Z,42.14
2022-09-10T10:54:22.269Z,42.08
2022-09-10T10:59:46.212Z,41.62
2022-09-10T11:04:55.367Z,41.52
2022-09-10T11:10:19.883Z,40.19
2022-09-10T11:15:37.934Z,40.55
2022-09-10T11:21:27.333Z,40.69
2022-09-10T11:26:44.487Z,40.86
2022-09-10T11:31:53.738Z,41.38
2022-09-10T11:37:19.265Z,41.01
2022-09-10T11:42:41.359Z,41.37
2022-09-10T11:47:49.080Z,41.81
2022-09-10T11:52:53.419Z,41.38
2022-09-10T11:58:17.734Z,41.26
2022-09-10T12:03:58.296Z,41.46
2022-09-10T12:09:18.886Z,41.89
2022-09-10T12:14:21.885Z,43.24
2022-09-10T12:19:37.517Z,44.23
2022-09-10T12:24:40.019Z,43.97
2022-09-10T12:29:42.049Z,44.06
2022-09-10T12:34:47.166Z,43.80
2022-09-10T12:40:12.959Z,43.70
2022-09-10T12:46:01.162Z,43.36
2022-09-10T12:51:13.910Z,44.03
2022-09-10T12:56:32.322Z,44.17
2022-09-10T13:01:49.160Z,43.00
2022-09-10T13:06:55.013Z,42.54
2022-09-10T13:12:03.592Z,42.36
2022-09-10T13:17:05.617Z,42.07
2022-09-10T13:22:31.918Z,42.20
2022-09-10T13:27:33.712Z,42.23
2022-09-10T13:32:48.502Z,41.87
2022-09-10T13:38:03.736Z,41.79
2022-09-10T13:43:39.712Z,41.84
2022-09-10T13:48:51.745Z,41.75
2022-09-10T13:53:54.814Z,41.15
2022-09-10T13:59:03.635Z,41.00
2022-09-10T14:04:27.147Z,40.97
2022-09-10T14:09:30.313Z,41.25
2022-09-10T14:14:38.636Z,41.66
2022-09-10T14:19:44.290Z,42.36
2022-09-10T14:24:52.196Z,42.16
2022-09-10T14:30:00.235Z,42.26
2022-09-10T14:35:39.570Z,42.69
2022-09-10T14:40:41.602Z,43.26
2022-09-10T14:45:47.989Z,42.83
2022-09-10T14:50:50.586Z,42.74
2022-09-10T14:55:52.856Z,42.83
2022-09-10T15:00:54.953Z,43.25
2022-09-10T15:05:56.852Z,43.62
2022-09-10T15:11:00.348Z,43.89
2022-09-10T15:16:02.803Z,44.58
2022-09-10T15:21:07.260Z,45.37
2022-09-10T15:26:12.569Z,46.15
2022-09-10T15:31:14.430Z,46.60
2022-09-10T15:36:16.259Z,47.60
2022-09-10T15:41:18.461Z,48.61
2022-09-10T15:46:22.024Z,48.57
2022-09-10T15:51:24.409Z,48.05
2022-09-10T15:56:26.701Z,47.71
2022-09-10T16:01:29.159Z,47.21
2022-09-10T16:06:36.930Z,46.86
2022-09-10T16:11:40.983Z,47.11
2022-09-10T16:16:42.850Z,47.41
2022-09-10T16:21:48.406Z,47.27
2022-09-10T16:26:51.272Z,47.87
2022-09-10T16:31:53.651Z,48.77
2022-09-10T16:36:55.517Z,49.04
2022-09-10T16:41:57.558Z,48.94
2022-09-10T16:46:59.535Z,49.03
2022-09-10T16:52:01.425Z,48.79
2022-09-10T16:57:03.343Z,48.90
2022-09-10T17:02:05.552Z,48.95
2022-09-10T17:07:07.430Z,48.86
2022-09-10T17:12:10.628Z,48.71
2022-09-10T17:17:13.998Z,48.59
2022-09-10T17:22:15.783Z,48.79
2022-09-10T17:27:17.607Z,48.82
2022-09-10T17:32:19.427Z,48.87
2022-09-10T17:37:21.254Z,48.76
2022-09-10T17:42:23.048Z,48.51
2022-09-10T17:47:24.949Z,48.40
2022-09-10T17:52:26.736Z,48.36
2022-09-10T17:57:28.549Z,48.78
2022-09-10T18:02:31.508Z,48.95
2022-09-10T18:07:33.383Z,48.65
2022-09-10T18:12:35.179Z,48.48
2022-09-10T18:17:37.063Z,48.30
2022-09-10T18:22:39.032Z,48.33
2022-09-10T18:27:43.446Z,48.22
2022-09-10T18:32:47.826Z,48.13
2022-09-10T18:37:52.351Z,48.38
2022-09-10T18:42:54.843Z,48.78
2022-09-10T18:47:57.018Z,48.97
2022-09-10T18:52:59.132Z,48.96
2022-09-10T18:58:02.026Z,48.63
2022-09-10T19:03:04.911Z,48.70
2022-09-10T19:08:07.312Z,48.38
2022-09-10T19:13:10.623Z,48.50
2022-09-10T19:18:12.874Z,48.56
2022-09-10T19:23:19.790Z,48.56
2022-09-10T19:28:23.683Z,48.43
2022-09-10T19:33:26.776Z,48.57
2022-09-10T19:38:46.877Z,48.55
2022-09-10T19:43:51.039Z,48.73
2022-09-10T19:48:53.280Z,49.00
2022-09-10T19:53:56.455Z,49.18
2022-09-10T19:58:59.779Z,49.26
2022-09-10T20:04:05.042Z,49.31
2022-09-10T20:09:09.908Z,49.31
2022-09-10T20:14:14.297Z,49.64
2022-09-10T20:19:22.059Z,49.85
2022-09-10T20:24:23.970Z,50.11
2022-09-10T20:29:30.054Z,51.10
2022-09-10T20:34:32.539Z,52.41
2022-09-10T20:39:34.748Z,52.74
2022-09-10T20:44:36.804Z,52.59
2022-09-10T20:49:38.741Z,52.35
2022-09-10T20:54:40.567Z,52.58
2022-09-10T20:59:44.160Z,53.03
2022-09-10T21:04:45.947Z,53.22
2022-09-10T21:09:47.734Z,53.17
2022-09-10T21:14:50.274Z,53.07
2022-09-10T21:19:52.063Z,52.84
2022-09-10T21:24:53.863Z,52.82
2022-09-10T21:29:55.642Z,52.68
2022-09-10T21:34:57.480Z,52.50
2022-09-10T21:40:01.000Z,52.42
2022-09-10T21:45:02.896Z,52.40
2022-09-10T21:50:05.051Z,52.37
2022-09-10T21:55:07.059Z,52.81
2022-09-10T22:00:10.166Z,52.82
2022-09-10T22:05:15.280Z,52.65
2022-09-10T22:10:18.712Z,52.26
2022-09-10T22:15:20.722Z,52.51
2022-09-10T22:20:22.588Z,52.81
2022-09-10T22:25:24.609Z,53.89
2022-09-10T22:30:30.114Z,54.45
2022-09-10T22:35:33.006Z,54.48
2022-09-10T22:40:34.820Z,54.39
2022-09-10T22:45:36.634Z,54.21
2022-09-10T22:50:38.434Z,53.60
2022-09-10T22:55:40.956Z,53.45
2022-09-10T23:00:42.776Z,53.38
2022-09-10T23:05:44.579Z,52.90
2022-09-10T23:10:46.462Z,53.08
2022-09-10T23:15:49.065Z,53.10
2022-09-10T23:20:51.050Z,53.14
2022-09-10T23:25:52.875Z,53.61
2022-09-10T23:30:54.762Z,54.02
2022-09-10T23:35:56.551Z,53.97
2022-09-10T23:41:00.159Z,54.18
2022-09-10T23:46:02.256Z,54.22
2022-09-10T23:51:06.371Z,54.70
2022-09-10T23:56:08.674Z,54.88
